Time;durP1;ratioP1;P1;durP2;ratioP2;P2;SDS_P1;SDS_P2;PMS_P1;PMS_P2;Temp;Humidity;BMP_temperature;BMP_pressure;BME280_temperature;BME280_humidity;BME280_pressure;Samples;Min_cycle;Max_cycle;Signal;HPM_P1;HPM_P2
2023/08/20 00:02:02;;;;;;;18.02;16.33;;;;;;;22.61;100.00;99893.03;5016816;28;20025;-92
2023/08/20 00:04:29;;;;;;;16.55;15.05;;;;;;;22.70;100.00;99914.41;5016791;28;20139;-92
2023/08/20 00:06:56;;;;;;;17.95;16.27;;;;;;;22.65;100.00;99914.84;5015859;28;20403;-92
2023/08/20 00:09:23;;;;;;;17.13;15.60;;;;;;;22.62;100.00;99923.91;5016930;28;20029;-91
2023/08/20 00:11:49;;;;;;;16.05;14.65;;;;;;;22.60;100.00;99920.56;5016987;28;20384;-92
2023/08/20 00:14:18;;;;;;;16.05;14.75;;;;;;;22.58;100.00;99911.91;5016838;28;20033;-93
2023/08/20 00:16:44;;;;;;;16.92;15.27;;;;;;;22.59;100.00;99916.25;5016399;28;20037;-92
2023/08/20 00:19:13;;;;;;;16.45;14.98;;;;;;;22.54;100.00;99910.50;5016535;28;20037;-92
2023/08/20 00:21:44;;;;;;;16.85;15.35;;;;;;;22.55;100.00;99920.19;5016424;28;20030;-92
2023/08/20 00:24:11;;;;;;;16.55;14.88;;;;;;;22.52;100.00;99925.75;5016805;28;20447;-93
2023/08/20 00:26:37;;;;;;;15.77;14.38;;;;;;;22.43;100.00;99916.00;5016516;28;20491;-92
2023/08/20 00:29:03;;;;;;;17.73;15.98;;;;;;;22.40;100.00;99916.25;5016429;28;20044;-93
2023/08/20 00:31:29;;;;;;;19.80;17.90;;;;;;;22.34;100.00;99904.41;5016381;28;20028;-92
2023/08/20 00:33:55;;;;;;;17.27;15.68;;;;;;;22.39;100.00;99907.47;5016127;28;20112;-92
2023/08/20 00:36:21;;;;;;;17.20;15.75;;;;;;;22.38;100.00;99918.22;5016456;28;20441;-93
2023/08/20 00:38:47;;;;;;;18.08;16.08;;;;;;;22.36;100.00;99912.22;5015966;28;20034;-92
2023/08/20 00:41:13;;;;;;;16.75;15.30;;;;;;;22.33;100.00;99909.84;5016324;28;20028;-92
2023/08/20 00:43:39;;;;;;;16.70;15.00;;;;;;;22.31;100.00;99903.84;5016046;28;20060;-91
2023/08/20 00:46:05;;;;;;;16.38;14.98;;;;;;;22.26;100.00;99896.31;5016146;28;20425;-92
2023/08/20 00:48:31;;;;;;;17.98;16.38;;;;;;;22.26;100.00;99904.28;5016176;28;20124;-93
2023/08/20 00:50:57;;;;;;;17.30;15.60;;;;;;;22.25;100.00;99909.69;5015780;28;20025;-92
2023/08/20 00:53:23;;;;;;;17.10;15.60;;;;;;;22.16;100.00;99898.09;5015809;28;20419;-92
2023/08/20 00:55:49;;;;;;;18.45;16.00;;;;;;;22.19;100.00;99903.13;5015812;28;20023;-92
2023/08/20 00:58:15;;;;;;;16.95;15.45;;;;;;;22.17;100.00;99894.50;5016043;28;20380;-92
2023/08/20 01:00:41;;;;;;;17.70;16.10;;;;;;;22.16;100.00;99898.09;5015682;28;20029;-92
2023/08/20 01:03:07;;;;;;;17.58;15.98;;;;;;;22.09;100.00;99886.38;5015690;28;20555;-92
2023/08/20 01:05:43;;;;;;;17.48;15.98;;;;;;;22.16;100.00;99895.44;5015772;28;20033;-92
2023/08/20 01:08:40;;;;;;;18.27;16.48;;;;;;;22.07;100.00;99899.75;5015741;28;20026;-92
2023/08/20 01:11:19;;;;;;;17.10;15.48;;;;;;;22.03;100.00;99903.66;4956086;28;20039;-92
2023/08/20 01:13:45;;;;;;;18.80;17.00;;;;;;;22.04;100.00;99899.22;4955832;28;20089;-92
2023/08/20 01:16:11;;;;;;;18.23;16.52;;;;;;;21.98;100.00;99886.50;4955691;28;20043;-93
2023/08/20 01:18:38;;;;;;;17.52;15.93;;;;;;;22.01;100.00;99891.53;4955878;28;20394;-92
2023/08/20 01:21:19;;;;;;;17.88;16.38;;;;;;;22.00;100.00;99903.97;4955639;28;20062;-93
2023/08/20 01:23:57;;;;;;;17.23;15.68;;;;;;;21.99;100.00;99904.91;4955691;28;20038;-92
2023/08/20 01:26:49;;;;;;;19.15;17.42;;;;;;;21.81;100.00;99888.00;4955900;28;20125;-92
2023/08/20 01:29:15;;;;;;;18.90;17.17;;;;;;;21.88;100.00;99897.09;4956062;28;20470;-92
2023/08/20 01:31:44;;;;;;;18.88;16.88;;;;;;;21.79;100.00;99884.69;4955543;28;20451;-92
2023/08/20 01:34:10;;;;;;;18.95;17.02;;;;;;;21.79;100.00;99892.63;4955681;28;20034;-92
2023/08/20 01:36:37;;;;;;;17.80;16.20;;;;;;;21.79;100.00;99893.47;4955781;28;20121;-92
2023/08/20 01:39:04;;;;;;;18.52;16.88;;;;;;;21.81;100.00;99890.66;4955207;28;20038;-93
2023/08/20 01:41:31;;;;;;;18.50;16.80;;;;;;;21.74;100.00;99887.72;4955540;28;20053;-93
2023/08/20 01:43:57;;;;;;;18.92;17.17;;;;;;;21.79;100.00;99893.47;4955256;28;20130;-92
2023/08/20 01:46:22;;;;;;;19.80;17.90;;;;;;;21.79;100.00;99888.16;4955461;28;20118;-91
2023/08/20 01:48:48;;;;;;;20.45;18.45;;;;;;;21.75;100.00;99880.63;5006099;28;20042;-92
2023/08/20 01:51:15;;;;;;;20.00;17.85;;;;;;;21.79;100.00;99895.28;5015062;28;20052;-92
2023/08/20 01:53:40;;;;;;;18.98;17.25;;;;;;;21.80;100.00;99899.59;5014726;28;20392;-92
2023/08/20 01:56:12;;;;;;;19.67;17.85;;;;;;;21.75;100.00;99896.53;5014947;28;20029;-92
2023/08/20 01:58:38;;;;;;;17.60;16.10;;;;;;;21.75;100.00;99892.06;5014759;28;20029;-92
2023/08/20 02:01:04;;;;;;;18.30;16.60;;;;;;;21.79;100.00;99903.22;5014616;28;20379;-93
2023/08/20 02:03:31;;;;;;;19.25;17.55;;;;;;;21.72;100.00;99889.69;5014486;28;20058;-92
2023/08/20 02:05:57;;;;;;;18.92;17.13;;;;;;;21.74;100.00;99905.44;5014528;28;20476;-92
2023/08/20 02:08:23;;;;;;;17.35;15.88;;;;;;;21.65;100.00;99899.97;5014644;28;20038;-92
2023/08/20 02:10:49;;;;;;;17.35;15.85;;;;;;;21.71;100.00;99913.69;5014330;28;20025;-93
2023/08/20 02:13:15;;;;;;;17.67;16.15;;;;;;;21.64;100.00;99900.97;5014732;28;20061;-92
2023/08/20 02:15:41;;;;;;;18.13;16.42;;;;;;;21.67;100.00;99915.75;5014692;28;20021;-92
2023/08/20 02:18:07;;;;;;;19.55;17.70;;;;;;;21.64;100.00;99911.56;5014554;28;20025;-92
2023/08/20 02:20:33;;;;;;;18.45;16.70;;;;;;;21.59;100.00;99912.94;5014322;28;20033;-92
2023/08/20 02:22:59;;;;;;;17.40;15.55;;;;;;;21.62;100.00;99926.78;5014481;28;20045;-92
2023/08/20 02:25:25;;;;;;;18.38;16.73;;;;;;;21.58;100.00;99925.38;5014633;28;20030;-92
2023/08/20 02:27:51;;;;;;;18.23;16.50;;;;;;;21.53;100.00;99917.00;5014001;28;20088;-92
2023/08/20 02:30:17;;;;;;;16.77;15.15;;;;;;;21.51;100.00;99915.44;5014153;28;20026;-93
2023/08/20 02:32:43;;;;;;;17.65;15.95;;;;;;;21.52;100.00;99911.81;5014392;28;20411;-93
2023/08/20 02:35:09;;;;;;;18.13;16.52;;;;;;;21.52;100.00;99915.28;5013955;28;20036;-92
2023/08/20 02:37:36;;;;;;;17.25;15.55;;;;;;;21.52;100.00;99917.09;5014118;28;20041;-93
2023/08/20 02:40:03;;;;;;;17.00;15.50;;;;;;;21.47;100.00;99904.25;5014302;28;20407;-93
2023/08/20 02:42:29;;;;;;;17.17;15.57;;;;;;;21.39;100.00;99889.03;5014206;28;20053;-92
2023/08/20 02:44:55;;;;;;;17.33;15.65;;;;;;;21.43;100.00;99909.00;5014168;28;20395;-93
2023/08/20 02:47:21;;;;;;;17.42;15.73;;;;;;;21.45;100.00;99905.34;5014257;28;20373;-92
2023/08/20 02:49:47;;;;;;;17.27;15.57;;;;;;;21.32;100.00;99889.69;5013827;28;20083;-92
2023/08/20 02:52:13;;;;;;;16.60;15.18;;;;;;;21.36;100.00;99905.22;5014059;28;20120;-92
2023/08/20 02:54:39;;;;;;;17.50;15.70;;;;;;;21.36;100.00;99905.22;5014240;28;20506;-93
2023/08/20 02:57:05;;;;;;;17.33;15.73;;;;;;;21.38;100.00;99913.84;5013742;28;20116;-92
2023/08/20 02:59:31;;;;;;;17.77;15.98;;;;;;;21.34;100.00;99908.97;5014065;28;20442;-92
2023/08/20 03:01:57;;;;;;;17.63;15.93;;;;;;;21.34;100.00;99911.63;5013851;28;20124;-92
2023/08/20 03:04:23;;;;;;;16.55;15.02;;;;;;;21.34;100.00;99916.91;5013979;28;20116;-92
2023/08/20 03:06:49;;;;;;;17.63;16.10;;;;;;;21.34;100.00;99914.25;5013690;28;20037;-92
2023/08/20 03:09:15;;;;;;;19.92;18.13;;;;;;;21.26;100.00;99906.09;5014171;28;20495;-91
2023/08/20 03:11:41;;;;;;;18.20;16.48;;;;;;;21.25;100.00;99910.56;5013877;28;20021;-92
2023/08/20 03:14:07;;;;;;;19.52;17.48;;;;;;;21.24;100.00;99910.69;5014030;28;20124;-92
2023/08/20 03:16:33;;;;;;;19.05;17.27;;;;;;;21.21;100.00;99919.75;5014065;28;20029;-92
2023/08/20 03:18:59;;;;;;;16.95;15.52;;;;;;;21.14;100.00;99913.31;5013596;28;20045;-92
2023/08/20 03:21:25;;;;;;;18.25;16.67;;;;;;;21.12;100.00;99912.63;5014098;28;20053;-93
2023/08/20 03:23:51;;;;;;;17.58;15.98;;;;;;;21.08;100.00;99906.75;5013561;28;20037;-92
2023/08/20 03:26:17;;;;;;;18.58;16.98;;;;;;;21.05;100.00;99907.00;5013894;28;20025;-93
2023/08/20 03:28:43;;;;;;;18.35;16.75;;;;;;;21.11;100.00;99917.06;5013922;28;20062;-92
2023/08/20 03:31:09;;;;;;;18.98;17.20;;;;;;;21.07;100.00;99909.50;5013514;28;20036;-91
2023/08/20 03:33:35;;;;;;;19.95;18.05;;;;;;;21.07;100.00;99910.38;5013675;28;20037;-92
2023/08/20 03:36:01;;;;;;;20.60;18.65;;;;;;;21.07;100.00;99914.78;5013471;28;20052;-91
2023/08/20 03:38:27;;;;;;;20.88;18.88;;;;;;;21.03;100.00;99911.59;5013623;28;20095;-92
2023/08/20 03:40:55;;;;;;;20.58;18.58;;;;;;;20.99;100.00;99914.66;5016144;28;20087;-92
2023/08/20 03:43:21;;;;;;;19.65;17.85;;;;;;;20.95;100.00;99918.53;5017364;28;20426;-92
2023/08/20 03:45:51;;;;;;;20.85;18.80;;;;;;;20.93;100.00;99919.47;5017315;28;20383;-92
2023/08/20 03:48:17;;;;;;;19.02;17.35;;;;;;;20.88;100.00;99910.25;5017148;28;20043;-93
2023/08/20 03:50:44;;;;;;;19.65;17.80;;;;;;;20.96;100.00;99912.25;5017357;28;20369;-92
2023/08/20 03:53:10;;;;;;;18.75;16.90;;;;;;;20.97;100.00;99916.56;5016852;28;20065;-92
2023/08/20 03:55:36;;;;;;;18.95;17.25;;;;;;;20.95;100.00;99915.88;5017113;28;20048;-92
2023/08/20 03:58:02;;;;;;;20.23;18.25;;;;;;;20.88;100.00;99907.59;5016747;28;20025;-92
2023/08/20 04:00:28;;;;;;;20.17;18.27;;;;;;;20.91;100.00;99913.47;5017009;28;20053;-93
2023/08/20 04:02:54;;;;;;;20.52;18.55;;;;;;;20.96;100.00;99921.03;5016625;28;20084;-92
2023/08/20 04:05:20;;;;;;;23.15;18.92;;;;;;;20.93;100.00;99916.81;5017145;28;20114;-92
2023/08/20 04:07:46;;;;;;;21.35;19.30;;;;;;;20.98;100.00;99920.88;5017039;28;20531;-92
2023/08/20 04:10:12;;;;;;;20.10;18.30;;;;;;;20.93;100.00;99911.53;5016756;28;20032;-92
2023/08/20 04:12:38;;;;;;;18.98;17.27;;;;;;;20.97;100.00;99912.09;5016829;28;20040;-92
2023/08/20 04:15:05;;;;;;;18.35;16.70;;;;;;;21.05;100.00;99922.06;5016632;28;20026;-92
2023/08/20 04:17:31;;;;;;;20.25;18.35;;;;;;;21.08;100.00;99913.84;5016834;28;20040;-92
2023/08/20 04:19:57;;;;;;;19.73;17.77;;;;;;;21.23;100.00;99927.56;5016467;28;20084;-92
2023/08/20 04:22:23;;;;;;;21.15;19.15;;;;;;;21.27;100.00;99924.50;5016853;28;20029;-92
2023/08/20 04:24:49;;;;;;;19.75;17.80;;;;;;;21.39;100.00;99931.44;5016746;28;20382;-92
2023/08/20 04:27:15;;;;;;;19.98;18.08;;;;;;;21.49;100.00;99926.19;5016570;28;20469;-93
2023/08/20 04:29:41;;;;;;;20.40;18.38;;;;;;;21.51;100.00;99926.88;5016460;28;20387;-92
2023/08/20 04:32:07;;;;;;;21.00;18.85;;;;;;;21.66;100.00;99935.31;5016285;28;20433;-93
2023/08/20 04:34:33;;;;;;;19.48;17.75;;;;;;;21.75;100.00;99937.13;5016930;28;20361;-92
2023/08/20 04:36:59;;;;;;;20.05;18.08;;;;;;;21.83;100.00;99937.28;5016291;28;20036;-92
2023/08/20 04:39:25;;;;;;;19.83;18.00;;;;;;;21.94;100.00;99938.97;5016373;28;20392;-93
2023/08/20 04:41:51;;;;;;;18.48;16.77;;;;;;;22.01;100.00;99937.44;5016360;28;20043;-92
2023/08/20 04:44:17;;;;;;;20.27;18.38;;;;;;;22.11;100.00;99935.63;5016034;28;20028;-93
2023/08/20 04:46:43;;;;;;;19.45;17.65;;;;;;;22.28;100.00;99943.91;5016452;28;20029;-92
2023/08/20 04:49:09;;;;;;;19.67;17.67;;;;;;;22.42;100.00;99951.47;5016129;28;20563;-92
2023/08/20 04:51:35;;;;;;;18.58;16.88;;;;;;;22.58;100.00;99951.72;5015600;28;20129;-92
2023/08/20 04:54:01;;;;;;;18.80;16.83;;;;;;;22.94;100.00;99961.78;5015749;28;20035;-92
2023/08/20 04:56:27;;;;;;;19.70;17.90;;;;;;;24.08;100.00;99950.78;5016022;28;20136;-92
2023/08/20 04:58:53;;;;;;;19.23;17.45;;;;;;;25.29;100.00;99951.13;5016112;28;20485;-93
2023/08/20 05:01:19;;;;;;;19.38;17.63;;;;;;;25.84;100.00;99958.69;5015875;28;20504;-93
2023/08/20 05:03:45;;;;;;;18.88;17.00;;;;;;;25.89;100.00;99964.38;5012750;28;20054;-93
2023/08/20 05:06:11;;;;;;;17.00;15.60;;;;;;;25.82;100.00;99958.00;5012215;28;20018;-92
2023/08/20 05:08:37;;;;;;;17.38;15.75;;;;;;;25.85;100.00;99960.38;5012481;28;20037;-93
2023/08/20 05:11:03;;;;;;;20.00;18.25;;;;;;;25.98;100.00;99958.06;5012189;28;20137;-93
2023/08/20 05:13:29;;;;;;;22.60;20.40;;;;;;;26.35;100.00;99960.28;5012450;28;20032;-92
2023/08/20 05:15:55;;;;;;;21.70;19.58;;;;;;;27.25;100.00;99965.59;5012178;28;20057;-92
2023/08/20 05:18:21;;;;;;;21.00;18.83;;;;;;;28.34;94.95;99951.34;5012305;28;20030;-92
2023/08/20 05:20:47;;;;;;;22.00;19.92;;;;;;;29.05;91.89;99968.03;5012615;28;20393;-92
2023/08/20 05:23:12;;;;;;;21.85;19.75;;;;;;;28.95;91.17;99970.13;5012026;28;20076;-92
2023/08/20 05:25:39;;;;;;;21.75;19.77;;;;;;;28.59;92.18;99967.28;5012356;28;20457;-92
2023/08/20 05:28:05;;;;;;;20.60;18.70;;;;;;;28.30;93.61;99970.66;5011850;28;20420;-92
2023/08/20 05:30:31;;;;;;;20.25;18.23;;;;;;;28.20;94.19;99970.88;5012050;28;20030;-92
2023/08/20 05:32:56;;;;;;;20.40;18.67;;;;;;;28.40;93.52;99979.31;5012270;28;20114;-92
2023/08/20 05:35:22;;;;;;;20.90;19.00;;;;;;;28.93;91.37;99982.88;5011978;28;20029;-92
2023/08/20 05:37:48;;;;;;;18.58;16.88;;;;;;;29.47;89.13;99979.16;5011842;28;20029;-92
2023/08/20 05:40:14;;;;;;;19.15;17.35;;;;;;;29.48;88.23;99976.28;5011754;28;20030;-93
2023/08/20 05:42:39;;;;;;;20.60;18.70;;;;;;;29.01;89.00;99976.63;5011943;28;20384;-92
2023/08/20 05:45:05;;;;;;;21.08;19.23;;;;;;;28.60;91.42;99975.13;5011566;28;20034;-92
2023/08/20 05:47:31;;;;;;;21.80;19.88;;;;;;;28.41;92.17;99974.78;5011872;28;20033;-93
2023/08/20 05:49:57;;;;;;;20.40;18.60;;;;;;;28.14;93.27;99971.59;5011681;28;20033;-91
2023/08/20 05:52:23;;;;;;;21.00;19.02;;;;;;;28.14;94.08;99986.81;5011841;28;20049;-92
2023/08/20 05:54:48;;;;;;;19.67;17.88;;;;;;;28.25;94.51;99979.22;5011194;28;20563;-92
2023/08/20 05:57:14;;;;;;;23.60;21.40;;;;;;;28.44;94.00;99987.81;5025595;28;20104;-92
2023/08/20 05:59:40;;;;;;;23.40;21.30;;;;;;;28.49;93.67;99991.66;5011198;28;20044;-92
2023/08/20 06:02:06;;;;;;;20.73;18.92;;;;;;;28.57;93.62;99977.34;5010996;28;20030;-92
2023/08/20 06:04:32;;;;;;;22.70;20.58;;;;;;;28.70;93.60;99990.16;5010582;28;20520;-91
2023/08/20 06:06:57;;;;;;;21.67;19.58;;;;;;;28.81;93.22;99990.53;5010997;28;20029;-92
2023/08/20 06:09:23;;;;;;;21.75;19.52;;;;;;;28.98;92.79;99990.41;5011208;28;20120;-92
2023/08/20 06:11:49;;;;;;;19.83;17.90;;;;;;;29.17;91.77;99986.38;5011178;28;20025;-92
2023/08/20 06:14:15;;;;;;;18.77;17.20;;;;;;;29.30;91.49;99986.56;5011110;28;20041;-92
2023/08/20 06:16:40;;;;;;;16.73;15.32;;;;;;;29.40;90.47;99980.91;5009940;28;20045;-92
2023/08/20 06:19:06;;;;;;;19.20;17.50;;;;;;;29.54;90.10;99988.16;4993368;28;20106;-92
2023/08/20 06:21:32;;;;;;;19.20;17.60;;;;;;;29.75;90.11;99998.13;4993597;28;20036;-92
2023/08/20 06:23:58;;;;;;;19.00;17.27;;;;;;;29.83;86.37;99993.50;4993620;28;20477;-92
2023/08/20 06:26:23;;;;;;;17.15;15.55;;;;;;;29.89;86.15;99996.47;4993532;28;20033;-92
2023/08/20 06:28:49;;;;;;;17.25;15.75;;;;;;;30.00;86.16;99991.44;4993440;28;20046;-92
2023/08/20 06:31:15;;;;;;;18.45;16.75;;;;;;;30.03;85.01;99985.66;4993297;28;20030;-92
2023/08/20 06:33:40;;;;;;;17.10;15.57;;;;;;;29.98;83.58;99987.25;4993460;28;20128;-92
2023/08/20 06:36:06;;;;;;;16.58;14.98;;;;;;;29.66;84.57;99989.34;4993370;28;20022;-92
2023/08/20 06:38:32;;;;;;;15.25;13.95;;;;;;;29.68;86.81;99998.06;4993542;28;20448;-91
2023/08/20 06:40:57;;;;;;;15.35;13.95;;;;;;;29.92;86.59;100002.28;4993549;28;20128;-92
2023/08/20 06:43:23;;;;;;;14.65;13.48;;;;;;;30.27;86.72;99997.13;4993083;28;20522;-91
2023/08/20 06:45:49;;;;;;;15.63;14.05;;;;;;;30.58;84.74;100000.31;5009712;28;20026;-91
2023/08/20 06:48:16;;;;;;;14.40;13.23;;;;;;;30.89;83.79;99999.16;4992994;28;20120;-92
2023/08/20 06:50:42;;;;;;;15.25;13.82;;;;;;;31.11;82.58;100001.81;4993316;28;20026;-91
2023/08/20 06:53:07;;;;;;;14.60;13.43;;;;;;;31.35;82.73;100012.16;4993122;28;20030;-92
2023/08/20 06:55:33;;;;;;;14.85;13.57;;;;;;;31.53;80.62;100008.94;5010976;28;20117;-91
2023/08/20 06:57:59;;;;;;;14.02;12.75;;;;;;;31.61;78.45;100008.78;5027089;28;20036;-92
2023/08/20 07:00:24;;;;;;;13.25;12.10;;;;;;;31.67;79.69;100017.91;5010836;28;20052;-92
2023/08/20 07:02:50;;;;;;;13.55;12.25;;;;;;;31.73;78.38;100012.56;5010787;28;20135;-91
2023/08/20 07:05:16;;;;;;;12.82;11.70;;;;;;;31.88;75.48;100014.31;5010612;28;20134;-92
2023/08/20 07:07:42;;;;;;;12.90;11.60;;;;;;;32.19;75.81;100011.91;5011000;28;20042;-92
2023/08/20 07:10:07;;;;;;;12.77;11.65;;;;;;;32.66;75.04;100012.88;5010495;28;20026;-92
2023/08/20 07:12:33;;;;;;;12.52;11.52;;;;;;;32.89;73.94;100017.00;5010584;28;20042;-91
2023/08/20 07:14:58;;;;;;;12.55;11.45;;;;;;;32.78;73.72;100015.75;5011589;28;20041;-93
2023/08/20 07:17:24;;;;;;;12.32;11.02;;;;;;;32.71;75.20;100014.94;5013361;28;20021;-92
2023/08/20 07:19:49;;;;;;;11.63;10.73;;;;;;;32.75;76.69;100013.50;5021498;28;20026;-93
2023/08/20 07:22:14;;;;;;;12.55;11.55;;;;;;;32.79;75.80;100025.53;5021246;28;20105;-92
2023/08/20 07:24:40;;;;;;;11.68;10.70;;;;;;;33.59;74.11;100020.09;5013099;28;20108;-92
2023/08/20 07:27:10;;;;;;;12.52;11.23;;;;;;;34.66;71.84;100021.22;5024668;28;20492;-92
2023/08/20 07:29:36;;;;;;;12.13;11.15;;;;;;;35.85;68.54;100021.94;5014498;28;20036;-91
2023/08/20 07:32:03;;;;;;;12.38;11.38;;;;;;;36.97;67.59;100031.22;5014033;28;20540;-92
2023/08/20 07:34:29;;;;;;;12.27;11.15;;;;;;;37.97;65.59;100023.91;5014101;28;20030;-92
2023/08/20 07:36:54;;;;;;;10.73;9.93;;;;;;;38.78;64.96;100030.03;5013965;28;20030;-92
2023/08/20 07:39:20;;;;;;;12.45;11.45;;;;;;;39.33;62.40;100033.88;5014763;28;20469;-90
2023/08/20 07:41:46;;;;;;;11.13;10.05;;;;;;;39.98;61.38;100032.25;5013737;28;20116;-90
2023/08/20 07:44:11;;;;;;;10.43;9.63;;;;;;;40.33;58.73;100037.31;5012779;28;20049;-92
2023/08/20 07:46:37;;;;;;;11.15;10.15;;;;;;;40.40;58.91;100038.72;5014209;28;20060;-92
2023/08/20 07:49:03;;;;;;;9.60;8.88;;;;;;;40.51;58.42;100041.56;5014081;28;20088;-92
2023/08/20 07:51:29;;;;;;;10.00;9.20;;;;;;;40.63;56.80;100042.25;5013422;28;20473;-92
2023/08/20 07:53:54;;;;;;;9.68;8.88;;;;;;;40.71;56.16;100040.91;5030564;28;20040;-90
2023/08/20 07:56:20;;;;;;;9.68;8.88;;;;;;;41.04;56.61;100046.13;5014936;28;20469;-90
2023/08/20 07:58:46;;;;;;;10.60;9.70;;;;;;;41.42;56.33;100040.63;5030342;28;20030;-92
2023/08/20 08:01:13;;;;;;;10.07;9.27;;;;;;;41.70;55.19;100042.16;5030169;28;20461;-89
2023/08/20 08:03:40;;;;;;;10.23;9.52;;;;;;;41.89;55.77;100040.63;5037157;28;20111;-90
2023/08/20 08:06:05;;;;;;;10.98;10.07;;;;;;;41.92;55.36;100042.78;5012489;28;20562;-90
2023/08/20 08:08:31;;;;;;;11.05;10.05;;;;;;;41.68;55.62;100036.09;5012570;28;20037;-90
2023/08/20 08:10:56;;;;;;;10.73;9.82;;;;;;;41.18;56.56;100043.78;5012167;28;20021;-90
2023/08/20 08:13:22;;;;;;;10.98;10.13;;;;;;;40.62;55.74;100037.84;5012160;28;20033;-90
2023/08/20 08:15:49;;;;;;;11.40;10.50;;;;;;;39.97;57.55;100038.81;5012684;28;20052;-90
2023/08/20 08:18:14;;;;;;;11.75;10.68;;;;;;;39.20;59.06;100035.03;5011920;28;20028;-91
2023/08/20 08:20:40;;;;;;;11.85;10.95;;;;;;;38.34;59.44;100013.47;5012446;28;20029;-90
2023/08/20 08:23:05;;;;;;;11.82;10.93;;;;;;;37.93;61.04;100039.06;5012979;28;20029;-89
2023/08/20 08:25:31;;;;;;;12.63;11.63;;;;;;;37.47;62.28;100031.81;5013110;28;20041;-90
2023/08/20 08:27:56;;;;;;;12.48;11.38;;;;;;;37.20;63.91;100034.97;5012764;28;20461;-90
2023/08/20 08:30:22;;;;;;;11.88;10.88;;;;;;;36.93;64.88;100040.88;5012372;28;20034;-90
2023/08/20 08:32:48;;;;;;;12.10;11.00;;;;;;;36.50;64.67;100049.28;5013140;28;20113;-90
2023/08/20 08:35:14;;;;;;;12.68;11.65;;;;;;;35.94;65.87;100039.56;5012854;28;20128;-91
2023/08/20 08:37:39;;;;;;;12.38;11.48;;;;;;;35.38;67.42;100038.72;5013258;28;20073;-90
2023/08/20 08:40:06;;;;;;;13.13;12.02;;;;;;;34.91;68.98;100035.59;5012947;28;20063;-91
2023/08/20 08:42:33;;;;;;;12.32;11.43;;;;;;;34.41;69.59;100030.09;5013383;28;20438;-90
2023/08/20 08:45:03;;;;;;;12.75;11.75;;;;;;;34.03;71.32;100034.69;5012867;28;20022;-91
2023/08/20 08:47:29;;;;;;;12.70;11.60;;;;;;;33.67;71.99;100038.72;5012789;28;20250;-90
2023/08/20 08:49:58;;;;;;;12.90;11.82;;;;;;;33.36;73.17;100042.94;5013115;28;20079;-90
2023/08/20 08:52:25;;;;;;;12.73;11.63;;;;;;;33.03;74.13;100042.97;5012537;28;20033;-90
2023/08/20 08:54:52;;;;;;;12.73;11.73;;;;;;;32.75;74.62;100049.38;5012879;28;20022;-91
2023/08/20 08:57:18;;;;;;;12.60;11.55;;;;;;;32.57;75.56;100049.13;5012476;28;20029;-90
2023/08/20 08:59:44;;;;;;;12.73;11.68;;;;;;;32.39;76.13;100054.28;5012653;28;20033;-90
2023/08/20 09:02:11;;;;;;;12.15;11.25;;;;;;;32.16;76.33;100047.38;5012501;28;20061;-91
2023/08/20 09:04:41;;;;;;;12.07;11.18;;;;;;;32.08;77.59;100050.22;5012343;28;20057;-91
2023/08/20 09:07:12;;;;;;;13.25;12.25;;;;;;;32.06;78.54;100054.97;5012645;28;20381;-91
2023/08/20 09:09:42;;;;;;;12.77;11.77;;;;;;;32.07;78.98;100048.56;5012676;28;20366;-90
2023/08/20 09:12:14;;;;;;;12.95;11.88;;;;;;;32.12;79.25;100053.34;5012395;28;20026;-90
2023/08/20 09:14:46;;;;;;;13.32;12.27;;;;;;;32.15;79.73;100059.19;5012578;28;20033;-90
2023/08/20 09:17:12;;;;;;;12.77;11.63;;;;;;;32.19;80.15;100064.97;5012219;28;20389;-90
2023/08/20 09:19:38;;;;;;;12.98;11.98;;;;;;;32.20;79.67;100061.28;5012219;28;20128;-91
2023/08/20 09:22:04;;;;;;;12.93;11.82;;;;;;;32.25;79.85;100072.28;5012528;28;20117;-91
2023/08/20 09:24:46;;;;;;;12.73;11.57;;;;;;;32.19;79.53;100064.97;5011989;28;20030;-90
2023/08/20 09:27:14;;;;;;;12.55;11.45;;;;;;;32.21;79.84;100071.84;5011836;28;20026;-90
2023/08/20 09:29:57;;;;;;;12.80;11.70;;;;;;;32.25;79.87;100085.75;5012114;28;20485;-90
2023/08/20 09:32:26;;;;;;;12.75;11.73;;;;;;;32.20;80.43;100067.50;5012109;28;20448;-90
2023/08/20 09:34:53;;;;;;;12.48;11.38;;;;;;;32.33;80.15;100080.19;5012015;28;20057;-90
2023/08/20 09:37:23;;;;;;;12.13;11.20;;;;;;;32.41;80.22;100081.88;5011694;28;20113;-90
2023/08/20 09:39:50;;;;;;;12.65;11.55;;;;;;;32.51;80.37;100090.41;5011912;28;20390;-90
2023/08/20 09:42:16;;;;;;;13.38;12.27;;;;;;;32.62;79.50;100092.53;5011617;28;20030;-90
2023/08/20 09:44:44;;;;;;;12.80;11.80;;;;;;;32.65;78.56;100075.06;5011798;28;20124;-90
2023/08/20 09:47:11;;;;;;;11.63;10.75;;;;;;;32.69;78.29;100079.84;5011077;28;20037;-90
2023/08/20 09:49:44;;;;;;;12.23;11.32;;;;;;;32.68;77.73;100071.97;5010743;28;20040;-90
2023/08/20 09:52:12;;;;;;;12.45;11.50;;;;;;;32.71;77.52;100079.66;5027912;28;20427;-91
2023/08/20 09:54:56;;;;;;;12.23;11.13;;;;;;;32.70;77.74;100076.16;5020376;28;20029;-90
2023/08/20 09:57:35;;;;;;;12.55;11.63;;;;;;;32.56;77.74;100055.56;5009044;28;20014;-90
2023/08/20 10:00:01;;;;;;;11.85;10.95;;;;;;;32.58;78.22;100060.78;5009738;28;20036;-90
2023/08/20 10:02:26;;;;;;;12.35;11.32;;;;;;;32.47;76.73;100057.63;5011448;28;20076;-90
2023/08/20 10:04:52;;;;;;;12.48;11.40;;;;;;;32.37;77.71;100051.78;5014455;28;20029;-90
2023/08/20 10:07:19;;;;;;;12.00;11.00;;;;;;;32.43;78.03;100067.16;5014097;28;20029;-90
2023/08/20 10:09:46;;;;;;;12.93;11.75;;;;;;;32.37;77.99;100057.16;5014249;28;20060;-90
2023/08/20 10:12:15;;;;;;;12.05;11.15;;;;;;;32.39;76.98;100065.91;5014240;28;20033;-90
2023/08/20 10:14:41;;;;;;;11.75;10.77;;;;;;;32.34;76.19;100065.66;5014259;28;20456;-90
2023/08/20 10:17:12;;;;;;;11.98;10.98;;;;;;;32.32;76.71;100072.28;5014288;28;20033;-90
2023/08/20 10:19:38;;;;;;;12.90;11.90;;;;;;;32.27;77.67;100065.63;5014311;28;20025;-90
2023/08/20 10:22:06;;;;;;;13.32;12.30;;;;;;;32.00;74.92;100055.78;5014415;28;20025;-90
2023/08/20 10:24:49;;;;;;;13.25;12.15;;;;;;;31.91;75.74;100060.53;5014140;28;20030;-90
2023/08/20 10:27:28;;;;;;;12.98;11.88;;;;;;;31.84;76.49;100056.97;5014276;28;20033;-90
2023/08/20 10:29:54;;;;;;;12.27;11.25;;;;;;;31.62;75.93;100050.81;5014475;28;20037;-90
2023/08/20 10:32:21;;;;;;;12.38;11.38;;;;;;;31.46;79.08;100037.66;5014119;28;20053;-90
2023/08/20 10:34:57;;;;;;;12.70;11.60;;;;;;;31.60;77.91;100057.41;4990231;28;20034;-90
2023/08/20 10:37:30;;;;;;;12.68;11.57;;;;;;;31.64;78.29;100062.19;4973599;28;20137;-90
2023/08/20 10:39:56;;;;;;;12.38;11.23;;;;;;;31.76;78.36;100063.31;4973942;28;20545;-90
2023/08/20 10:42:26;;;;;;;12.18;11.18;;;;;;;31.92;75.94;100058.66;4973776;28;20035;-91
2023/08/20 10:45:05;;;;;;;12.38;11.27;;;;;;;31.98;74.02;100047.94;4973888;28;20058;-90
2023/08/20 10:47:48;;;;;;;12.32;11.35;;;;;;;32.03;76.73;100033.84;4973646;28;20577;-89
2023/08/20 10:50:18;;;;;;;12.57;11.48;;;;;;;32.23;77.22;100055.44;4973100;28;20038;-91
2023/08/20 10:52:54;;;;;;;11.85;10.88;;;;;;;32.33;79.14;100061.31;4973685;28;20101;-90
2023/08/20 10:55:25;;;;;;;12.85;11.77;;;;;;;32.43;77.83;100050.16;4973496;28;20478;-90
2023/08/20 10:57:59;;;;;;;11.48;10.48;;;;;;;32.39;78.27;100032.72;4973762;28;20031;-90
2023/08/20 11:00:25;;;;;;;11.43;10.48;;;;;;;32.48;77.08;100044.97;4973440;28;20477;-90
2023/08/20 11:02:53;;;;;;;11.45;10.55;;;;;;;32.55;74.65;100043.13;4973515;28;20092;-90
2023/08/20 11:05:21;;;;;;;11.30;10.30;;;;;;;32.62;75.82;100052.06;4982763;28;20068;-90
2023/08/20 11:07:48;;;;;;;21.80;10.93;;;;;;;32.63;75.56;100052.91;5010622;28;20041;-90
2023/08/20 11:10:15;;;;;;;12.10;11.20;;;;;;;32.64;75.83;100049.97;5010539;28;20026;-90
2023/08/20 11:12:42;;;;;;;12.02;10.93;;;;;;;32.64;76.02;100047.28;5010859;28;20029;-90